createdAt,value
2023-03-15T00:02:40.143Z,82.81
2023-03-15T00:05:51.900Z,82.74
2023-03-15T00:09:01.078Z,81.25
2023-03-15T00:12:11.967Z,81.48
2023-03-15T00:15:21.497Z,82.22
2023-03-15T00:18:29.965Z,81.99
2023-03-15T00:21:43.044Z,81.67
2023-03-15T00:24:53.473Z,80.94
2023-03-15T00:28:04.445Z,80.43
2023-03-15T00:31:17.777Z,80.34
2023-03-15T00:34:28.245Z,81.09
2023-03-15T00:37:40.759Z,82.08
2023-03-15T00:40:47.299Z,81.42
2023-03-15T00:43:55.981Z,81.41
2023-03-15T00:47:14.034Z,81.52
2023-03-15T00:50:23.629Z,81.24
2023-03-15T00:53:34.393Z,81.06
2023-03-15T00:56:45.957Z,81.74
2023-03-15T00:59:56.399Z,81.10
2023-03-15T01:03:36.976Z,80.29
2023-03-15T01:06:51.834Z,79.96
2023-03-15T01:10:17.404Z,79.24
2023-03-15T01:13:23.638Z,78.18
2023-03-15T01:16:33.353Z,78.73
2023-03-15T01:19:42.462Z,78.51
2023-03-15T01:22:49.919Z,79.36
2023-03-15T01:25:57.995Z,79.56
2023-03-15T01:29:05.130Z,79.15
2023-03-15T01:32:12.482Z,80.09
2023-03-15T01:35:20.198Z,79.22
2023-03-15T01:42:10.132Z,79.87
2023-03-15T01:45:55.173Z,80.86
2023-03-15T01:49:14.789Z,80.60
2023-03-15T01:52:25.452Z,81.17
2023-03-15T01:55:34.025Z,80.32
2023-03-15T01:58:42.754Z,80.76
2023-03-15T02:01:51.901Z,80.38
2023-03-15T02:05:05.774Z,79.67
2023-03-15T02:08:13.296Z,80.44
2023-03-15T02:11:24.928Z,79.62
2023-03-15T02:18:28.185Z,79.03
2023-03-15T02:21:54.976Z,79.63
2023-03-15T02:28:35.995Z,79.79
2023-03-15T02:31:54.334Z,79.46
2023-03-15T02:35:10.893Z,79.33
2023-03-15T02:38:19.576Z,80.34
2023-03-15T02:41:32.186Z,79.86
2023-03-15T02:44:49.836Z,80.19
2023-03-15T02:48:03.090Z,79.49
2023-03-15T02:51:11.750Z,78.89
2023-03-15T02:54:18.776Z,79.24
2023-03-15T02:57:29.097Z,78.64
2023-03-15T03:00:39.103Z,77.74
2023-03-15T03:03:50.393Z,77.92
2023-03-15T03:07:03.022Z,78.24
2023-03-15T03:10:12.097Z,77.65
2023-03-15T03:13:21.938Z,77.66
2023-03-15T03:16:35.629Z,77.24
2023-03-15T03:19:49.792Z,77.12
2023-03-15T03:23:12.629Z,77.79
2023-03-15T03:30:01.671Z,77.50
2023-03-15T03:33:09.718Z,77.55
2023-03-15T03:36:17.960Z,77.69
2023-03-15T03:39:34.660Z,77.34
2023-03-15T03:42:50.976Z,78.52
2023-03-15T03:45:57.962Z,77.92
2023-03-15T03:49:07.520Z,77.12
2023-03-15T03:52:16.868Z,77.67
2023-03-15T03:55:27.534Z,75.81
2023-03-15T03:58:34.253Z,77.05
2023-03-15T04:01:40.812Z,76.06
2023-03-15T04:04:53.111Z,76.64
2023-03-15T04:08:02.889Z,75.77
2023-03-15T04:11:09.466Z,75.91
2023-03-15T04:14:16.412Z,75.42
2023-03-15T04:17:25.790Z,75.58
2023-03-15T04:20:37.370Z,75.88
2023-03-15T04:23:43.544Z,75.98
2023-03-15T04:26:49.286Z,76.41
2023-03-15T04:29:55.584Z,76.46
2023-03-15T04:33:05.794Z,76.16
2023-03-15T04:36:19.068Z,76.02
2023-03-15T04:39:26.243Z,75.68
2023-03-15T04:42:33.425Z,75.68
2023-03-15T04:45:40.095Z,75.53
2023-03-15T04:48:48.124Z,75.62
2023-03-15T04:51:55.947Z,76.11
2023-03-15T04:55:02.468Z,76.03
2023-03-15T04:58:08.007Z,76.34
2023-03-15T05:01:14.524Z,75.36
2023-03-15T05:04:21.595Z,75.87
2023-03-15T05:07:30.151Z,76.31
2023-03-15T05:10:36.160Z,76.12
2023-03-15T05:13:42.400Z,75.95
2023-03-15T05:16:49.680Z,76.05
2023-03-15T05:19:57.473Z,75.55
2023-03-15T05:23:05.383Z,75.99
2023-03-15T05:26:11.353Z,75.43
2023-03-15T05:29:18.039Z,75.01
2023-03-15T05:32:29.032Z,74.72
2023-03-15T05:35:35.557Z,75.18
2023-03-15T05:38:43.974Z,73.05
2023-03-15T05:41:48.060Z,72.83
2023-03-15T05:44:50.981Z,73.97
2023-03-15T05:47:54.053Z,73.63
2023-03-15T05:50:56.796Z,73.57
2023-03-15T05:54:01.054Z,73.60
2023-03-15T05:57:04.327Z,72.96
2023-03-15T06:00:10.186Z,72.99
2023-03-15T06:03:13.106Z,73.84
2023-03-15T06:06:16.379Z,73.76
2023-03-15T06:09:20.805Z,73.37
2023-03-15T06:12:23.561Z,72.02
2023-03-15T06:15:26.366Z,73.29
2023-03-15T06:18:29.264Z,72.50
2023-03-15T06:21:32.179Z,72.95
2023-03-15T06:24:36.687Z,73.23
2023-03-15T06:27:39.884Z,72.32
2023-03-15T06:30:42.838Z,70.20
2023-03-15T06:33:45.562Z,69.69
2023-03-15T06:36:49.477Z,67.91
2023-03-15T06:39:54.523Z,64.76
2023-03-15T06:42:57.486Z,64.74
2023-03-15T06:46:00.918Z,57.59
2023-03-15T06:49:04.305Z,53.86
2023-03-15T06:52:08.500Z,49.01
2023-03-15T06:55:17.183Z,46.49
2023-03-15T06:58:20.067Z,42.59
2023-03-15T07:01:22.932Z,41.61
2023-03-15T07:04:25.950Z,40.13
2023-03-15T07:07:28.727Z,38.93
2023-03-15T07:10:32.986Z,36.30
2023-03-15T07:13:35.931Z,32.66
2023-03-15T07:16:38.806Z,31.27
2023-03-15T07:19:55.561Z,29.92
2023-03-15T07:22:59.446Z,31.04
2023-03-15T07:26:04.002Z,29.29
2023-03-15T07:29:06.950Z,31.14
2023-03-15T07:32:09.823Z,34.00
2023-03-15T07:35:13.543Z,37.99
2023-03-15T07:38:16.540Z,42.18
2023-03-15T07:41:20.749Z,45.01
2023-03-15T07:44:23.751Z,47.71
2023-03-15T07:47:26.745Z,50.04
2023-03-15T07:50:29.713Z,51.82
2023-03-15T07:53:32.474Z,54.53
2023-03-15T07:56:37.517Z,53.11
2023-03-15T07:59:40.444Z,53.98
2023-03-15T08:02:44.390Z,54.17
2023-03-15T08:05:47.344Z,54.09
2023-03-15T08:08:50.099Z,53.39
2023-03-15T08:11:54.744Z,54.84
2023-03-15T08:14:57.573Z,55.65
2023-03-15T08:18:00.704Z,55.13
2023-03-15T08:21:04.280Z,53.46
2023-03-15T08:24:07.640Z,52.24
2023-03-15T08:27:11.983Z,51.83
2023-03-15T08:30:16.454Z,52.97
2023-03-15T08:33:19.176Z,53.37
2023-03-15T08:36:22.013Z,52.77
2023-03-15T08:39:25.005Z,54.16
2023-03-15T08:42:29.405Z,53.04
2023-03-15T08:45:46.664Z,52.93
2023-03-15T08:48:56.128Z,52.35
2023-03-15T08:51:59.220Z,52.63
2023-03-15T08:55:02.155Z,54.62
2023-03-15T08:58:06.355Z,53.85
2023-03-15T09:01:09.260Z,53.60
2023-03-15T09:04:12.200Z,52.41
2023-03-15T09:07:15.450Z,51.69
2023-03-15T09:10:19.018Z,51.01
2023-03-15T09:13:23.511Z,51.35
2023-03-15T09:16:26.597Z,49.61
2023-03-15T09:22:39.612Z,48.70
2023-03-15T09:25:43.156Z,48.25
2023-03-15T09:28:47.542Z,49.99
2023-03-15T09:31:50.593Z,49.69
2023-03-15T09:34:53.564Z,48.24
2023-03-15T09:37:56.862Z,48.33
2023-03-15T09:41:00.804Z,48.96
2023-03-15T09:44:16.153Z,49.13
2023-03-15T09:47:34.791Z,51.39
2023-03-15T09:50:45.689Z,50.94
2023-03-15T09:53:55.267Z,49.72
2023-03-15T09:57:02.579Z,49.31
2023-03-15T10:00:12.657Z,47.88
2023-03-15T10:03:22.481Z,47.49
2023-03-15T10:06:30.266Z,47.90
2023-03-15T10:09:34.581Z,47.87
2023-03-15T10:12:42.048Z,46.77
2023-03-15T10:16:02.244Z,46.09
2023-03-15T10:19:14.851Z,47.08
2023-03-15T10:22:25.772Z,48.57
2023-03-15T10:25:30.101Z,48.05
2023-03-15T10:28:34.901Z,48.42
2023-03-15T10:31:45.001Z,47.30
2023-03-15T10:34:52.129Z,47.07
2023-03-15T10:37:55.441Z,46.28
2023-03-15T10:41:00.602Z,45.69
2023-03-15T10:44:06.665Z,43.14
2023-03-15T10:47:23.588Z,42.47
2023-03-15T10:50:29.040Z,44.80
2023-03-15T10:53:31.999Z,44.97
2023-03-15T10:56:43.206Z,44.33
2023-03-15T10:59:56.498Z,45.01
2023-03-15T11:03:06.701Z,44.28
2023-03-15T11:06:21.506Z,45.32
2023-03-15T11:09:26.601Z,45.08
2023-03-15T11:12:31.008Z,46.60
2023-03-15T11:15:34.197Z,44.64
2023-03-15T11:18:46.875Z,46.18
2023-03-15T11:21:52.050Z,46.33
2023-03-15T11:24:55.796Z,45.71
2023-03-15T11:27:58.855Z,44.37
2023-03-15T11:31:04.656Z,45.28
2023-03-15T11:34:13.599Z,45.73
2023-03-15T11:37:20.872Z,45.04
2023-03-15T11:40:32.601Z,45.65
2023-03-15T11:43:48.460Z,46.55
2023-03-15T11:46:57.423Z,46.76
2023-03-15T11:50:02.013Z,47.04
2023-03-15T11:53:07.179Z,48.82
2023-03-15T11:56:26.238Z,49.75
2023-03-15T11:59:32.665Z,47.75
2023-03-15T12:02:49.168Z,47.21
2023-03-15T12:05:59.800Z,47.69
2023-03-15T12:09:03.068Z,49.74
2023-03-15T12:12:07.771Z,50.33
2023-03-15T12:15:50.004Z,51.20
2023-03-15T12:18:54.568Z,51.53
2023-03-15T12:21:59.819Z,51.84
2023-03-15T12:25:12.861Z,51.45
2023-03-15T12:28:22.974Z,50.59
2023-03-15T12:31:26.351Z,50.90
2023-03-15T12:34:43.403Z,50.33
2023-03-15T12:37:49.611Z,50.72
2023-03-15T12:40:55.268Z,51.81
2023-03-15T12:44:19.722Z,55.28
2023-03-15T12:47:22.566Z,58.75
2023-03-15T12:50:39.302Z,60.08
2023-03-15T12:53:49.192Z,61.51
2023-03-15T12:56:55.502Z,60.84
2023-03-15T13:00:02.028Z,62.47
2023-03-15T13:03:07.677Z,63.12
2023-03-15T13:06:20.229Z,62.75
2023-03-15T13:09:42.161Z,65.19
2023-03-15T13:12:49.211Z,68.33
2023-03-15T13:16:05.636Z,66.80
2023-03-15T13:19:18.717Z,67.45
2023-03-15T13:22:30.282Z,65.68
2023-03-15T13:25:39.938Z,66.64
2023-03-15T13:28:49.482Z,63.49
2023-03-15T13:32:03.008Z,63.85
2023-03-15T13:35:13.060Z,64.79
2023-03-15T13:38:27.130Z,63.44
2023-03-15T13:41:32.449Z,63.05
2023-03-15T13:44:35.384Z,64.32
2023-03-15T13:47:38.256Z,65.61
2023-03-15T13:50:40.937Z,67.15
2023-03-15T13:53:50.016Z,67.58
2023-03-15T13:57:04.997Z,68.83
2023-03-15T14:00:12.016Z,69.74
2023-03-15T14:03:22.281Z,71.28
2023-03-15T14:06:27.209Z,73.32
2023-03-15T14:09:29.856Z,74.70
2023-03-15T14:12:34.120Z,73.62
2023-03-15T14:15:39.209Z,73.38
2023-03-15T14:18:42.699Z,72.19
2023-03-15T14:21:48.815Z,69.68
2023-03-15T14:24:53.563Z,67.48
2023-03-15T14:28:01.227Z,68.59
2023-03-15T14:31:04.399Z,68.45
2023-03-15T14:34:09.930Z,69.59
2023-03-15T14:37:31.053Z,69.14
2023-03-15T14:40:35.974Z,68.86
2023-03-15T14:43:39.987Z,69.67
2023-03-15T14:46:42.744Z,70.92
2023-03-15T14:49:45.472Z,72.40
2023-03-15T14:52:49.087Z,71.50
2023-03-15T14:55:51.906Z,74.60
2023-03-15T14:58:55.922Z,75.41
2023-03-15T15:02:00.935Z,74.82
2023-03-15T15:05:04.339Z,78.54
2023-03-15T15:08:12.776Z,78.29
2023-03-15T15:11:15.875Z,80.22
2023-03-15T15:14:20.354Z,81.45
2023-03-15T15:17:23.445Z,80.53
2023-03-15T15:20:26.398Z,80.38
2023-03-15T15:23:31.086Z,80.46
2023-03-15T15:26:34.440Z,80.24
2023-03-15T15:29:38.449Z,79.24
2023-03-15T15:32:41.179Z,81.00
2023-03-15T15:35:43.912Z,81.47
2023-03-15T15:38:46.652Z,81.93
2023-03-15T15:41:49.897Z,82.44
2023-03-15T15:44:53.854Z,82.66
2023-03-15T15:47:56.911Z,82.90
2023-03-15T15:50:59.561Z,82.32
2023-03-15T15:54:03.458Z,82.46
2023-03-15T15:57:07.843Z,82.62
2023-03-15T16:00:17.943Z,82.84
2023-03-15T16:03:20.622Z,82.02
2023-03-15T16:06:23.585Z,83.45
2023-03-15T16:09:29.977Z,82.28
2023-03-15T16:12:32.741Z,83.28
2023-03-15T16:15:36.793Z,82.92
2023-03-15T16:18:39.401Z,82.52
2023-03-15T16:21:44.943Z,81.55
2023-03-15T16:24:50.975Z,80.34
2023-03-15T16:27:55.657Z,80.83
2023-03-15T16:30:59.739Z,81.61
2023-03-15T16:34:02.469Z,81.60
2023-03-15T16:37:05.667Z,82.04
2023-03-15T16:40:16.243Z,81.87
2023-03-15T16:43:19.675Z,81.81
2023-03-15T16:46:23.690Z,81.58
2023-03-15T16:49:26.307Z,80.81
2023-03-15T16:52:29.030Z,81.01
2023-03-15T16:55:33.763Z,81.21
2023-03-15T16:58:36.522Z,80.77
2023-03-15T17:01:40.651Z,79.75
2023-03-15T17:04:43.331Z,80.03
2023-03-15T17:07:47.904Z,81.07
2023-03-15T17:10:50.706Z,80.86
2023-03-15T17:13:53.314Z,81.93
2023-03-15T17:16:57.434Z,82.58
2023-03-15T17:20:00.113Z,82.64
2023-03-15T17:23:04.878Z,83.34
2023-03-15T17:26:10.754Z,82.92
2023-03-15T17:29:15.814Z,83.17
2023-03-15T17:32:19.951Z,82.95
2023-03-15T17:35:25.432Z,83.17
2023-03-15T17:38:32.086Z,83.89
2023-03-15T17:41:36.986Z,84.17
2023-03-15T17:44:39.558Z,83.66
2023-03-15T17:47:43.594Z,82.92
2023-03-15T17:50:46.244Z,82.11
2023-03-15T17:53:49.223Z,81.57
2023-03-15T17:56:52.241Z,80.51
2023-03-15T17:59:54.850Z,79.67
2023-03-15T18:03:00.133Z,80.20
2023-03-15T18:06:05.200Z,80.84
2023-03-15T18:09:07.867Z,80.80
2023-03-15T18:12:13.187Z,80.45
2023-03-15T18:15:19.102Z,79.56
2023-03-15T18:18:23.094Z,80.30
2023-03-15T18:21:28.412Z,80.58
2023-03-15T18:24:31.672Z,79.99
2023-03-15T18:27:34.332Z,81.36
2023-03-15T18:30:38.021Z,82.18
2023-03-15T18:33:42.320Z,82.18
2023-03-15T18:36:45.128Z,82.15
2023-03-15T18:39:47.814Z,82.07
2023-03-15T18:42:50.623Z,82.16
2023-03-15T18:45:53.504Z,81.50
2023-03-15T18:48:57.576Z,81.62
2023-03-15T18:52:00.190Z,81.37
2023-03-15T18:55:03.102Z,81.02
2023-03-15T18:58:08.832Z,81.60
2023-03-15T19:01:11.685Z,82.41
2023-03-15T19:04:15.706Z,82.07
2023-03-15T19:07:18.449Z,82.53
2023-03-15T19:10:22.527Z,80.38
2023-03-15T19:13:25.242Z,81.44
2023-03-15T19:16:30.493Z,80.60
2023-03-15T19:19:35.072Z,80.48
2023-03-15T19:22:37.652Z,81.38
2023-03-15T19:25:40.418Z,81.50
2023-03-15T19:28:43.547Z,81.68
2023-03-15T19:31:46.175Z,81.99
2023-03-15T19:34:50.131Z,81.18
2023-03-15T19:37:53.502Z,80.69
2023-03-15T19:40:58.546Z,82.70
2023-03-15T19:44:01.158Z,83.97
2023-03-15T19:47:03.845Z,82.50
2023-03-15T19:50:10.579Z,82.10
2023-03-15T19:53:13.195Z,81.41
2023-03-15T19:56:15.947Z,82.64
2023-03-15T19:59:18.584Z,81.23
2023-03-15T20:02:21.261Z,80.43
2023-03-15T20:05:26.127Z,79.95
2023-03-15T20:08:28.765Z,79.20
2023-03-15T20:11:32.146Z,79.36
2023-03-15T20:14:35.248Z,79.64
2023-03-15T20:17:38.337Z,79.82
2023-03-15T20:20:42.278Z,78.73
2023-03-15T20:23:45.413Z,79.43
2023-03-15T20:26:48.276Z,80.22
2023-03-15T20:29:51.821Z,80.70
2023-03-15T20:32:54.831Z,80.44
2023-03-15T20:35:59.046Z,80.65
2023-03-15T20:39:01.883Z,80.30
2023-03-15T20:42:04.692Z,80.74
2023-03-15T20:45:09.675Z,81.36
2023-03-15T20:48:12.659Z,79.93
2023-03-15T20:51:16.674Z,79.57
2023-03-15T20:54:19.342Z,80.47
2023-03-15T20:57:22.027Z,79.15
2023-03-15T21:00:27.139Z,79.81
2023-03-15T21:03:31.225Z,80.63
2023-03-15T21:06:35.240Z,80.98
2023-03-15T21:09:38.099Z,80.74
2023-03-15T21:12:40.759Z,82.30
2023-03-15T21:15:45.791Z,81.19
2023-03-15T21:18:51.876Z,81.22
2023-03-15T21:21:56.944Z,81.28
2023-03-15T21:25:00.383Z,79.98
2023-03-15T21:28:03.904Z,80.94
2023-03-15T21:31:07.356Z,81.35
2023-03-15T21:34:10.021Z,81.59
2023-03-15T21:37:13.961Z,81.15
2023-03-15T21:40:16.638Z,80.49
2023-03-15T21:43:19.823Z,79.42
2023-03-15T21:46:22.697Z,79.57
2023-03-15T21:49:25.419Z,79.45
2023-03-15T21:52:29.504Z,80.62
2023-03-15T21:55:33.445Z,79.95
2023-03-15T21:58:36.450Z,79.26
2023-03-15T22:01:39.030Z,79.24
2023-03-15T22:04:42.668Z,80.64
2023-03-15T22:07:46.950Z,80.80
2023-03-15T22:10:53.362Z,80.87
2023-03-15T22:13:56.001Z,80.80
2023-03-15T22:16:58.664Z,79.31
2023-03-15T22:20:02.356Z,79.09
2023-03-15T22:23:06.613Z,78.38
2023-03-15T22:26:09.246Z,79.09
2023-03-15T22:29:11.990Z,78.53
2023-03-15T22:32:14.593Z,77.65
2023-03-15T22:35:17.998Z,78.64
2023-03-15T22:38:22.765Z,77.89
2023-03-15T22:41:25.369Z,79.24
2023-03-15T22:44:30.404Z,78.99
2023-03-15T22:47:33.198Z,79.97
2023-03-15T22:50:35.845Z,80.36
2023-03-15T22:53:39.879Z,80.35
2023-03-15T22:56:43.000Z,79.50
2023-03-15T22:59:45.749Z,79.62
2023-03-15T23:02:48.454Z,79.37
2023-03-15T23:05:51.129Z,78.48
2023-03-15T23:08:55.112Z,78.55
2023-03-15T23:11:57.760Z,78.79
2023-03-15T23:15:01.611Z,78.65
2023-03-15T23:18:05.721Z,78.46
2023-03-15T23:21:10.736Z,79.61
2023-03-15T23:24:17.148Z,80.44
2023-03-15T23:27:19.810Z,80.42
2023-03-15T23:30:22.998Z,79.25
2023-03-15T23:33:25.688Z,79.37
2023-03-15T23:36:28.371Z,79.00
2023-03-15T23:39:32.351Z,78.93
2023-03-15T23:42:37.459Z,78.73
2023-03-15T23:45:40.130Z,80.02
2023-03-15T23:48:42.834Z,80.58
2023-03-15T23:51:45.442Z,80.32
2023-03-15T23:54:49.608Z,80.39
2023-03-15T23:57:52.282Z,79.71
